Terminal Aerodrome Forecast
Issued by NWS Raleigh/Durham, NC

Home | Current Version | Previous Version | Text Only | Print | Product List | Glossary On
Versions: 1 2 3 4 5 6 7 8 9 10 11 12 13 14 15 16 17 18 19 20 21 22 23 24 25
000
FTUS42 KRAH 232004 AAB
TAFRDU
TAF AMD
KRDU 232004Z 2320/2418 VRB03KT P6SM SCT025
     FM240800 19003KT 4SM BR BKN008
      TEMPO 2410/2412 1SM BR OVC005
     FM241530 21005KT P6SM BKN015
     FM241700 22006KT P6SM BKN025=

USA.gov is the U.S. government's official web portal to all federal, state and local government web resources and services.